Time;durP1;ratioP1;P1;durP2;ratioP2;P2;SDS_P1;SDS_P2;PMS_P1;PMS_P2;Temp;Humidity;BMP_temperature;BMP_pressure;BME280_temperature;BME280_humidity;BME280_pressure;Samples;Min_cycle;Max_cycle;Signal;HPM_P1;HPM_P2
2022/12/06 00:02:05;;;;;;;15.67;11.90;;;;;;;;;;5095193;28;20229;-59
2022/12/06 00:04:32;;;;;;;17.27;12.20;;;;;;;;;;5095168;28;20491;-59
2022/12/06 00:06:59;;;;;;;14.75;11.63;;;;;;;;;;5095071;28;20278;-59
2022/12/06 00:09:28;;;;;;;13.52;11.50;;;;;;;;;;5095320;28;20300;-59
2022/12/06 00:11:55;;;;;;;16.30;12.15;;;;;;;;;;5095136;28;20191;-59
2022/12/06 00:14:22;;;;;;;16.00;12.47;;;;;;;;;;5094938;28;20194;-59
2022/12/06 00:16:50;;;;;;;17.63;12.25;;;;;;;;;;5094776;28;20506;-59
2022/12/06 00:19:18;;;;;;;16.52;11.90;;;;;;;;;;5094557;28;20213;-59
2022/12/06 00:21:46;;;;;;;14.98;10.95;;;;;;;;;;5094547;28;20222;-59
2022/12/06 00:24:14;;;;;;;13.82;11.55;;;;;;;;;;5094891;28;20202;-59
2022/12/06 00:26:43;;;;;;;15.25;12.10;;;;;;;;;;5094743;28;20187;-59
2022/12/06 00:29:12;;;;;;;18.95;12.02;;;;;;;;;;5094901;28;20188;-59
2022/12/06 00:31:39;;;;;;;15.77;12.67;;;;;;;;;;5094532;28;20282;-59
2022/12/06 00:34:06;;;;;;;15.95;12.25;;;;;;;;;;5094406;28;20454;-59
2022/12/06 00:36:34;;;;;;;12.50;10.95;;;;;;;;;;5094441;28;20192;-59
2022/12/06 00:39:02;;;;;;;15.75;13.30;;;;;;;;;;5094524;28;20215;-59
2022/12/06 00:41:29;;;;;;;13.88;12.10;;;;;;;;;;5094353;28;20241;-59
2022/12/06 00:43:57;;;;;;;18.42;13.35;;;;;;;;;;5094389;28;20289;-59
2022/12/06 00:46:25;;;;;;;16.20;12.80;;;;;;;;;;5094223;28;20322;-59
2022/12/06 00:48:53;;;;;;;15.75;11.95;;;;;;;;;;5094082;28;20910;-59
2022/12/06 00:51:20;;;;;;;15.80;12.77;;;;;;;;;;5094367;28;20660;-59
2022/12/06 00:53:48;;;;;;;14.80;11.60;;;;;;;;;;5094267;28;20198;-59
2022/12/06 00:56:15;;;;;;;13.57;11.52;;;;;;;;;;5094108;28;20532;-59
2022/12/06 00:58:42;;;;;;;14.10;11.85;;;;;;;;;;5094089;28;20191;-59
2022/12/06 01:01:12;;;;;;;13.32;11.70;;;;;;;;;;5093794;28;20210;-59
2022/12/06 01:03:39;;;;;;;14.82;11.93;;;;;;;;;;5094282;28;20188;-59
2022/12/06 01:06:07;;;;;;;15.98;12.70;;;;;;;;;;5094096;28;20463;-59
2022/12/06 01:08:34;;;;;;;16.63;12.70;;;;;;;;;;5094059;28;20187;-59
2022/12/06 01:11:02;;;;;;;13.95;11.60;;;;;;;;;;5093885;28;20195;-59
2022/12/06 01:13:29;;;;;;;15.68;11.80;;;;;;;;;;5093861;28;20195;-59
2022/12/06 01:15:56;;;;;;;16.00;12.40;;;;;;;;;;5093595;28;20197;-59
2022/12/06 01:18:24;;;;;;;16.30;12.53;;;;;;;;;;5094057;28;20195;-59
2022/12/06 01:20:51;;;;;;;14.65;11.25;;;;;;;;;;5093687;28;20474;-59
2022/12/06 01:23:18;;;;;;;11.83;10.30;;;;;;;;;;5093692;28;20237;-59
2022/12/06 01:25:52;;;;;;;13.63;12.18;;;;;;;;;;5093544;28;20503;-59
2022/12/06 01:28:19;;;;;;;14.60;11.70;;;;;;;;;;5093421;28;20187;-59
2022/12/06 01:30:46;;;;;;;15.07;11.95;;;;;;;;;;5093065;28;20545;-59
2022/12/06 01:33:12;;;;;;;14.53;12.00;;;;;;;;;;5093616;28;20275;-59
2022/12/06 01:35:41;;;;;;;13.20;11.63;;;;;;;;;;5093414;28;20450;-59
2022/12/06 01:38:08;;;;;;;13.23;10.98;;;;;;;;;;5093389;28;20449;-59
2022/12/06 01:40:38;;;;;;;12.30;10.80;;;;;;;;;;5093233;28;20202;-59
2022/12/06 01:43:06;;;;;;;14.05;10.68;;;;;;;;;;5093234;28;20442;-59
2022/12/06 01:45:33;;;;;;;12.65;10.88;;;;;;;;;;5093247;28;20512;-59
2022/12/06 01:48:00;;;;;;;12.77;10.43;;;;;;;;;;5093373;28;20707;-59
2022/12/06 01:50:31;;;;;;;14.82;10.80;;;;;;;;;;5093309;28;20192;-59
2022/12/06 01:53:01;;;;;;;12.52;11.10;;;;;;;;;;5093252;28;20192;-59
2022/12/06 01:55:29;;;;;;;12.10;9.63;;;;;;;;;;5093095;28;20274;-59
2022/12/06 01:57:58;;;;;;;12.13;10.30;;;;;;;;;;5093299;28;20277;-59
2022/12/06 02:00:25;;;;;;;12.65;10.38;;;;;;;;;;5093251;28;20195;-59
2022/12/06 02:02:53;;;;;;;12.02;10.77;;;;;;;;;;5093066;28;20223;-59
2022/12/06 02:05:21;;;;;;;12.40;11.00;;;;;;;;;;5093112;28;20279;-59
2022/12/06 02:07:48;;;;;;;12.13;9.83;;;;;;;;;;5092904;28;20191;-59
2022/12/06 02:10:16;;;;;;;12.77;10.95;;;;;;;;;;5093176;28;20444;-59
2022/12/06 02:12:43;;;;;;;14.37;12.40;;;;;;;;;;5093147;28;20283;-59
2022/12/06 02:15:10;;;;;;;13.70;11.43;;;;;;;;;;5093329;28;20544;-59
2022/12/06 02:17:41;;;;;;;13.17;10.63;;;;;;;;;;5092900;28;20452;-59
2022/12/06 02:20:17;;;;;;;12.80;10.37;;;;;;;;;;5092971;28;20548;-59
2022/12/06 02:22:54;;;;;;;10.97;9.87;;;;;;;;;;5092964;28;20539;-59
2022/12/06 02:25:36;;;;;;;11.98;10.77;;;;;;;;;;5093037;28;20459;-59
2022/12/06 02:28:16;;;;;;;13.02;11.05;;;;;;;;;;5092883;28;20279;-59
2022/12/06 02:30:47;;;;;;;11.52;10.32;;;;;;;;;;5092711;28;20199;-59
2022/12/06 02:33:19;;;;;;;12.10;10.85;;;;;;;;;;5093011;28;20287;-59
2022/12/06 02:35:48;;;;;;;11.83;10.40;;;;;;;;;;5092840;28;20576;-60
2022/12/06 02:38:17;;;;;;;12.20;10.90;;;;;;;;;;5092716;28;20456;-59
2022/12/06 02:40:47;;;;;;;11.80;10.33;;;;;;;;;;5093500;28;20197;-59
2022/12/06 02:43:16;;;;;;;12.25;10.18;;;;;;;;;;5096838;28;20556;-59
2022/12/06 02:45:45;;;;;;;11.80;9.90;;;;;;;;;;5096692;28;20198;-59
2022/12/06 02:48:14;;;;;;;11.45;9.48;;;;;;;;;;5096464;28;20934;-59
2022/12/06 02:50:44;;;;;;;14.10;10.57;;;;;;;;;;5096555;28;20222;-59
2022/12/06 02:53:13;;;;;;;15.13;10.27;;;;;;;;;;5096701;28;20453;-59
2022/12/06 02:55:40;;;;;;;12.20;9.77;;;;;;;;;;5096465;28;20481;-59
2022/12/06 02:58:07;;;;;;;15.70;10.60;;;;;;;;;;5096229;28;20283;-59
2022/12/06 03:00:36;;;;;;;15.73;10.80;;;;;;;;;;5096466;28;20455;-59
2022/12/06 03:03:12;;;;;;;11.43;9.50;;;;;;;;;;5096246;28;20567;-59
2022/12/06 03:05:42;;;;;;;10.82;9.73;;;;;;;;;;5096293;28;20191;-59
2022/12/06 03:08:16;;;;;;;11.47;9.50;;;;;;;;;;5096151;28;20189;-59
2022/12/06 03:10:47;;;;;;;14.83;11.10;;;;;;;;;;5096344;28;20541;-59
2022/12/06 03:13:17;;;;;;;12.93;10.10;;;;;;;;;;5096453;28;20465;-59
2022/12/06 03:15:47;;;;;;;10.85;9.75;;;;;;;;;;5096087;28;20453;-59
2022/12/06 03:18:18;;;;;;;9.80;8.80;;;;;;;;;;5096143;28;20638;-60
2022/12/06 03:20:50;;;;;;;11.30;10.00;;;;;;;;;;5095911;28;20457;-59
2022/12/06 03:23:20;;;;;;;11.23;9.02;;;;;;;;;;5096054;28;20482;-60
2022/12/06 03:25:47;;;;;;;10.63;9.52;;;;;;;;;;5096000;28;20647;-59
2022/12/06 03:28:15;;;;;;;10.95;9.20;;;;;;;;;;5095828;28;20291;-59
2022/12/06 03:30:45;;;;;;;12.50;10.60;;;;;;;;;;5095725;28;20198;-60
2022/12/06 03:33:13;;;;;;;13.90;10.57;;;;;;;;;;5095667;28;20936;-60
2022/12/06 03:35:40;;;;;;;12.53;10.20;;;;;;;;;;5095858;28;20653;-59
2022/12/06 03:38:10;;;;;;;12.45;10.60;;;;;;;;;;5095903;28;20549;-59
2022/12/06 03:40:39;;;;;;;12.20;10.90;;;;;;;;;;5095886;28;20541;-59
2022/12/06 03:43:06;;;;;;;14.25;11.38;;;;;;;;;;5095527;28;20230;-60
2022/12/06 03:45:34;;;;;;;13.75;11.20;;;;;;;;;;5095241;28;20191;-60
2022/12/06 03:48:04;;;;;;;11.70;9.97;;;;;;;;;;5095294;28;20248;-60
2022/12/06 03:50:34;;;;;;;12.63;9.88;;;;;;;;;;5095496;28;20450;-61
2022/12/06 03:53:01;;;;;;;12.63;10.02;;;;;;;;;;5094697;28;20198;-60
2022/12/06 03:55:30;;;;;;;13.32;10.40;;;;;;;;;;5095370;28;20220;-60
2022/12/06 03:57:57;;;;;;;13.75;11.13;;;;;;;;;;5095225;28;20187;-60
2022/12/06 04:00:24;;;;;;;11.02;9.60;;;;;;;;;;5095082;28;20275;-60
2022/12/06 04:02:51;;;;;;;11.93;10.35;;;;;;;;;;5095234;28;20222;-60
2022/12/06 04:05:18;;;;;;;14.55;11.18;;;;;;;;;;5095451;28;20191;-60
2022/12/06 04:07:44;;;;;;;13.68;10.95;;;;;;;;;;5095043;28;20198;-60
2022/12/06 04:10:12;;;;;;;15.33;10.60;;;;;;;;;;5095021;28;20299;-60
2022/12/06 04:15:25;;;;;;;14.27;11.00;;;;;;;;;;5095209;28;20507;-60
2022/12/06 04:18:09;;;;;;;15.87;11.90;;;;;;;;;;5094986;28;20454;-60
2022/12/06 04:23:25;;;;;;;14.30;11.37;;;;;;;;;;5094693;28;20304;-60
2022/12/06 04:25:52;;;;;;;14.63;11.10;;;;;;;;;;5094869;28;20454;-60
2022/12/06 04:39:19;;;;;;;12.52;10.90;;;;;;;;;;5094459;28;20692;-60
2022/12/06 04:44:32;;;;;;;13.90;10.60;;;;;;;;;;5094721;28;20540;-60
2022/12/06 04:46:59;;;;;;;10.13;9.07;;;;;;;;;;5094224;28;20806;-60
2022/12/06 04:49:26;;;;;;;12.75;9.88;;;;;;;;;;5094120;28;20471;-60
2022/12/06 04:51:53;;;;;;;12.68;10.77;;;;;;;;;;5094139;28;20198;-60
2022/12/06 04:54:20;;;;;;;12.25;10.43;;;;;;;;;;5094148;28;20194;-60
2022/12/06 04:56:47;;;;;;;14.43;11.67;;;;;;;;;;5093962;28;20284;-60
2022/12/06 04:59:14;;;;;;;10.82;9.73;;;;;;;;;;5093871;28;20461;-60
2022/12/06 05:01:42;;;;;;;12.75;10.70;;;;;;;;;;5094207;28;20187;-60
2022/12/06 05:04:09;;;;;;;11.90;9.67;;;;;;;;;;5092953;28;20742;-60
2022/12/06 05:06:36;;;;;;;11.60;9.57;;;;;;;;;;5093785;28;20538;-60
2022/12/06 05:09:03;;;;;;;11.53;9.57;;;;;;;;;;5093998;28;21019;-60
2022/12/06 05:11:30;;;;;;;11.63;10.23;;;;;;;;;;5094022;28;20449;-60
2022/12/06 05:13:57;;;;;;;10.57;9.47;;;;;;;;;;5093786;28;20545;-60
2022/12/06 05:16:24;;;;;;;11.23;10.07;;;;;;;;;;5093776;28;20544;-60
2022/12/06 05:18:52;;;;;;;16.17;10.30;;;;;;;;;;5093613;28;20537;-60
2022/12/06 05:21:19;;;;;;;12.80;11.52;;;;;;;;;;5093616;28;20455;-60
2022/12/06 05:23:47;;;;;;;12.70;10.20;;;;;;;;;;5093365;28;20222;-61
2022/12/06 05:26:15;;;;;;;12.93;10.05;;;;;;;;;;5093438;28;20454;-60
2022/12/06 05:28:42;;;;;;;12.80;10.07;;;;;;;;;;5093445;28;20194;-61
2022/12/06 05:31:09;;;;;;;14.95;10.80;;;;;;;;;;5093418;28;20456;-60
2022/12/06 05:33:36;;;;;;;11.23;9.93;;;;;;;;;;5093418;28;20624;-60
2022/12/06 05:36:08;;;;;;;12.23;10.50;;;;;;;;;;5093295;28;20445;-61
2022/12/06 05:38:35;;;;;;;13.20;10.20;;;;;;;;;;5093435;28;20202;-60
2022/12/06 05:41:02;;;;;;;14.73;11.07;;;;;;;;;;5093366;28;20888;-60
2022/12/06 05:43:29;;;;;;;13.67;10.23;;;;;;;;;;5093192;28;20265;-60
2022/12/06 05:45:56;;;;;;;13.27;11.05;;;;;;;;;;5093063;28;20488;-60
2022/12/06 05:48:23;;;;;;;13.00;10.83;;;;;;;;;;5093200;28;20286;-60
2022/12/06 05:50:50;;;;;;;15.27;12.73;;;;;;;;;;5092849;28;20536;-60
2022/12/06 05:53:18;;;;;;;14.40;11.37;;;;;;;;;;5093268;28;20464;-60
2022/12/06 05:55:45;;;;;;;14.83;11.10;;;;;;;;;;5093405;28;20460;-60
2022/12/06 05:58:14;;;;;;;13.70;11.50;;;;;;;;;;5093067;28;20544;-60
2022/12/06 06:00:41;;;;;;;14.15;11.45;;;;;;;;;;5093043;28;20488;-60
2022/12/06 06:03:08;;;;;;;14.73;10.50;;;;;;;;;;5092878;28;20302;-60
2022/12/06 06:05:35;;;;;;;12.30;10.93;;;;;;;;;;5092876;28;20452;-60
2022/12/06 06:08:02;;;;;;;12.40;10.15;;;;;;;;;;5092949;28;20457;-61
2022/12/06 06:10:30;;;;;;;14.83;10.87;;;;;;;;;;5093010;28;20626;-60
2022/12/06 06:12:57;;;;;;;11.27;9.43;;;;;;;;;;5092956;28;20450;-60
2022/12/06 06:15:24;;;;;;;12.20;10.10;;;;;;;;;;5093247;28;20446;-60
2022/12/06 06:17:51;;;;;;;11.23;9.27;;;;;;;;;;5096983;28;20475;-61
2022/12/06 06:20:18;;;;;;;11.20;8.73;;;;;;;;;;5097199;28;20455;-61
2022/12/06 06:22:45;;;;;;;13.13;9.90;;;;;;;;;;5097033;28;20952;-60
2022/12/06 06:25:12;;;;;;;10.13;8.53;;;;;;;;;;5096893;28;20464;-60
2022/12/06 06:27:40;;;;;;;9.17;7.47;;;;;;;;;;5096844;28;20453;-60
2022/12/06 06:30:08;;;;;;;8.98;7.60;;;;;;;;;;5096746;28;20568;-60
2022/12/06 06:32:35;;;;;;;9.60;7.85;;;;;;;;;;5096607;28;20254;-60
2022/12/06 06:35:02;;;;;;;10.00;7.65;;;;;;;;;;5096854;28;20199;-60
2022/12/06 06:37:29;;;;;;;8.60;6.85;;;;;;;;;;5096785;28;20202;-60
2022/12/06 06:39:56;;;;;;;9.93;7.60;;;;;;;;;;5097052;28;20232;-60
2022/12/06 06:42:23;;;;;;;8.70;7.78;;;;;;;;;;5096454;28;20473;-60
2022/12/06 06:44:53;;;;;;;8.52;7.55;;;;;;;;;;5096437;28;20198;-60
2022/12/06 06:47:20;;;;;;;9.67;8.67;;;;;;;;;;5096263;28;20763;-60
2022/12/06 06:49:47;;;;;;;8.95;8.05;;;;;;;;;;5096504;28;20446;-61
2022/12/06 06:52:14;;;;;;;8.63;7.73;;;;;;;;;;5096451;28;20639;-60
2022/12/06 06:54:41;;;;;;;9.07;7.30;;;;;;;;;;5096329;28;20457;-61
2022/12/06 06:57:08;;;;;;;8.23;7.47;;;;;;;;;;5096230;28;20188;-60
2022/12/06 06:59:35;;;;;;;8.82;7.80;;;;;;;;;;5095927;28;20191;-60
2022/12/06 07:02:03;;;;;;;9.47;7.57;;;;;;;;;;5096135;28;20715;-60
2022/12/06 07:04:30;;;;;;;9.95;8.40;;;;;;;;;;5096108;28;20507;-60
2022/12/06 07:06:58;;;;;;;8.73;7.83;;;;;;;;;;5096052;28;20194;-60
2022/12/06 07:09:25;;;;;;;13.47;10.03;;;;;;;;;;5096271;28;20553;-60
2022/12/06 07:11:54;;;;;;;12.07;10.60;;;;;;;;;;5096038;28;20457;-60
2022/12/06 07:14:21;;;;;;;12.70;9.70;;;;;;;;;;5095892;28;20218;-60
2022/12/06 07:16:47;;;;;;;10.85;9.38;;;;;;;;;;5096011;28;20449;-61
2022/12/06 07:19:16;;;;;;;11.53;9.10;;;;;;;;;;5095962;28;20198;-60
2022/12/06 07:21:42;;;;;;;11.68;9.40;;;;;;;;;;5095832;28;20792;-60
2022/12/06 07:24:09;;;;;;;11.80;10.30;;;;;;;;;;5095664;28;20226;-61
2022/12/06 07:26:36;;;;;;;11.33;9.90;;;;;;;;;;5095375;28;20286;-60
2022/12/06 07:29:03;;;;;;;16.20;10.90;;;;;;;;;;5095029;28;20542;-60
2022/12/06 07:31:31;;;;;;;7.65;6.95;;;;;;;;;;5095636;28;20450;-60
2022/12/06 07:33:58;;;;;;;8.60;7.70;;;;;;;;;;5095568;28;20272;-60
2022/12/06 07:36:29;;;;;;;9.07;8.13;;;;;;;;;;5095514;28;20201;-60
2022/12/06 07:38:57;;;;;;;8.90;8.10;;;;;;;;;;5095402;28;20450;-61
2022/12/06 07:46:55;;;;;;;11.15;10.15;;;;;;;;;;5095025;28;20364;-60
2022/12/06 07:49:22;;;;;;;10.13;9.05;;;;;;;;;;5095332;28;20198;-60
2022/12/06 07:51:50;;;;;;;11.52;10.32;;;;;;;;;;5095119;28;20627;-60
2022/12/06 07:54:18;;;;;;;15.70;11.98;;;;;;;;;;5095662;28;20197;-61
2022/12/06 07:56:44;;;;;;;12.55;11.23;;;;;;;;;;5095245;28;20567;-60
2022/12/06 07:59:12;;;;;;;7.40;6.80;;;;;;;;;;5095401;28;20194;-60
2022/12/06 08:01:39;;;;;;;8.55;7.13;;;;;;;;;;5094966;28;20540;-60
2022/12/06 08:04:06;;;;;;;7.20;6.60;;;;;;;;;;5097793;28;20215;-60
2022/12/06 08:06:33;;;;;;;7.82;7.20;;;;;;;;;;5095923;28;20187;-60
2022/12/06 08:09:02;;;;;;;7.93;7.20;;;;;;;;;;5093992;28;20434;-60
2022/12/06 08:11:29;;;;;;;7.67;6.97;;;;;;;;;;5094714;28;20536;-60
2022/12/06 08:13:56;;;;;;;7.00;6.30;;;;;;;;;;5097608;28;20449;-62
2022/12/06 08:16:23;;;;;;;11.75;10.05;;;;;;;;;;5097198;28;20195;-61
2022/12/06 08:18:51;;;;;;;12.13;9.75;;;;;;;;;;5114040;28;20615;-64
2022/12/06 08:21:18;;;;;;;11.45;10.10;;;;;;;;;;5095226;28;20215;-64
2022/12/06 08:23:45;;;;;;;12.52;11.30;;;;;;;;;;5104169;27;20223;-66
2022/12/06 08:26:17;;;;;;;13.03;10.60;;;;;;;;;;5099911;28;20358;-65
2022/12/06 08:28:44;;;;;;;9.68;8.68;;;;;;;;;;5094321;28;20441;-63
2022/12/06 08:31:13;;;;;;;9.48;8.38;;;;;;;;;;5106563;27;20665;-64
2022/12/06 08:33:40;;;;;;;8.95;8.05;;;;;;;;;;5113013;28;20190;-63
2022/12/06 08:36:08;;;;;;;9.35;8.45;;;;;;;;;;5108531;28;20277;-64
2022/12/06 08:38:35;;;;;;;12.00;9.20;;;;;;;;;;5093758;28;20200;-64
2022/12/06 08:41:02;;;;;;;13.75;9.10;;;;;;;;;;5105822;28;20303;-63
2022/12/06 08:43:31;;;;;;;19.90;11.73;;;;;;;;;;5106120;28;20229;-61
2022/12/06 08:45:57;;;;;;;22.73;12.65;;;;;;;;;;5098811;28;20839;-62
2022/12/06 08:48:24;;;;;;;19.37;12.23;;;;;;;;;;5095948;28;20722;-61
2022/12/06 08:50:51;;;;;;;11.20;9.00;;;;;;;;;;5097861;28;20552;-66
2022/12/06 08:53:18;;;;;;;9.88;8.38;;;;;;;;;;5093930;28;20253;-66
2022/12/06 08:55:53;;;;;;;10.00;8.20;;;;;;;;;;5100890;28;20187;-57
2022/12/06 08:58:21;;;;;;;7.70;7.00;;;;;;;;;;5097122;28;20453;-60
2022/12/06 09:00:49;;;;;;;9.95;8.07;;;;;;;;;;5111107;27;20461;-63
2022/12/06 09:03:16;;;;;;;8.80;7.80;;;;;;;;;;5104926;27;20586;-61
2022/12/06 09:05:43;;;;;;;10.40;8.48;;;;;;;;;;5102041;28;20188;-65
2022/12/06 09:08:11;;;;;;;7.15;6.45;;;;;;;;;;5098433;28;20191;-60
2022/12/06 09:10:38;;;;;;;6.80;6.10;;;;;;;;;;5093217;28;20267;-62
2022/12/06 09:13:05;;;;;;;8.05;6.70;;;;;;;;;;5095151;28;20554;-61
2022/12/06 09:15:32;;;;;;;6.25;5.72;;;;;;;;;;5092896;28;20282;-60
2022/12/06 09:18:01;;;;;;;7.03;6.43;;;;;;;;;;5092848;28;20194;-61
2022/12/06 09:20:28;;;;;;;12.07;7.87;;;;;;;;;;5095773;28;20450;-60
2022/12/06 09:22:55;;;;;;;11.50;8.35;;;;;;;;;;5092383;28;20453;-60
2022/12/06 09:25:22;;;;;;;10.13;8.68;;;;;;;;;;5091047;28;20197;-60
2022/12/06 09:27:49;;;;;;;11.05;9.40;;;;;;;;;;5093363;28;20538;-62
2022/12/06 09:30:16;;;;;;;15.00;10.30;;;;;;;;;;5093272;28;20192;-61
2022/12/06 09:32:44;;;;;;;9.87;8.33;;;;;;;;;;5092587;28;20549;-58
2022/12/06 09:35:12;;;;;;;8.40;6.07;;;;;;;;;;5100515;28;20456;-65
2022/12/06 09:37:39;;;;;;;7.85;6.88;;;;;;;;;;5097887;28;20192;-65
2022/12/06 09:40:12;;;;;;;6.60;6.00;;;;;;;;;;5091629;28;20195;-65
2022/12/06 09:42:44;;;;;;;6.78;6.18;;;;;;;;;;5092626;28;20459;-61
2022/12/06 09:45:19;;;;;;;6.67;6.07;;;;;;;;;;5091769;28;20682;-63
2022/12/06 09:47:55;;;;;;;8.20;5.88;;;;;;;;;;5089233;28;20476;-64
2022/12/06 09:50:26;;;;;;;6.87;4.90;;;;;;;;;;5093515;28;20195;-63
2022/12/06 09:53:00;;;;;;;6.53;5.93;;;;;;;;;;5101688;28;20468;-63
2022/12/06 09:55:32;;;;;;;5.90;5.30;;;;;;;;;;5095051;27;20863;-60
2022/12/06 09:58:04;;;;;;;5.93;5.22;;;;;;;;;;5116754;27;20186;-60
2022/12/06 10:00:35;;;;;;;7.40;5.30;;;;;;;;;;5112162;28;20563;-61
2022/12/06 10:03:12;;;;;;;5.73;5.23;;;;;;;;;;5113095;28;20458;-62
2022/12/06 10:05:49;;;;;;;5.40;4.33;;;;;;;;;;5113353;28;20456;-61
2022/12/06 10:08:23;;;;;;;5.90;5.40;;;;;;;;;;5102085;28;20479;-60
2022/12/06 10:10:54;;;;;;;5.82;5.25;;;;;;;;;;5113238;28;20482;-62
2022/12/06 10:13:26;;;;;;;5.10;4.70;;;;;;;;;;5113226;28;20275;-64
2022/12/06 10:15:56;;;;;;;5.93;5.32;;;;;;;;;;5111684;28;20186;-65
2022/12/06 10:18:35;;;;;;;5.47;4.97;;;;;;;;;;5113360;28;20221;-63
2022/12/06 10:21:06;;;;;;;4.20;3.90;;;;;;;;;;5099650;28;20479;-64
2022/12/06 10:23:41;;;;;;;4.93;4.53;;;;;;;;;;5108692;28;20273;-64
2022/12/06 10:26:13;;;;;;;4.97;4.57;;;;;;;;;;5103104;28;20190;-63
2022/12/06 10:28:43;;;;;;;5.03;4.63;;;;;;;;;;5106495;28;20215;-61
2022/12/06 10:31:15;;;;;;;4.72;4.32;;;;;;;;;;5106192;28;20453;-63
2022/12/06 10:33:48;;;;;;;4.80;4.40;;;;;;;;;;5104875;28;20661;-63
2022/12/06 10:36:19;;;;;;;4.93;4.45;;;;;;;;;;5112945;28;20249;-63
2022/12/06 10:38:49;;;;;;;4.90;4.45;;;;;;;;;;5092680;28;20550;-64
2022/12/06 10:41:20;;;;;;;4.47;4.18;;;;;;;;;;5092596;28;20758;-64
2022/12/06 10:43:52;;;;;;;5.37;4.97;;;;;;;;;;5097985;28;20235;-66
2022/12/06 10:49:09;;;;;;;6.63;4.37;;;;;;;;;;5100048;28;20199;-64
2022/12/06 10:51:40;;;;;;;5.15;4.65;;;;;;;;;;5102956;28;20472;-61
2022/12/06 10:54:16;;;;;;;3.97;3.67;;;;;;;;;;5120375;28;20272;-64
2022/12/06 10:56:44;;;;;;;6.25;4.80;;;;;;;;;;5113709;28;20458;-59
2022/12/06 10:59:20;;;;;;;4.27;3.87;;;;;;;;;;5102432;28;20189;-56
2022/12/06 11:01:48;;;;;;;4.68;4.32;;;;;;;;;;5105830;28;20444;-64
2022/12/06 11:04:20;;;;;;;6.30;4.40;;;;;;;;;;5104396;28;20220;-64
2022/12/06 11:06:51;;;;;;;5.37;4.20;;;;;;;;;;5099383;28;20453;-62
2022/12/06 11:09:21;;;;;;;4.88;4.47;;;;;;;;;;5103133;28;20543;-62
2022/12/06 11:11:49;;;;;;;4.93;4.50;;;;;;;;;;5115158;28;20198;-52
2022/12/06 11:14:19;;;;;;;4.00;3.70;;;;;;;;;;5098187;28;20550;-63
2022/12/06 11:16:52;;;;;;;4.57;4.27;;;;;;;;;;5105556;28;20462;-76
2022/12/06 11:19:22;;;;;;;4.97;4.38;;;;;;;;;;5106007;28;20454;-66
2022/12/06 11:21:53;;;;;;;5.80;4.37;;;;;;;;;;5102677;28;20279;-64
2022/12/06 11:24:22;;;;;;;5.60;5.00;;;;;;;;;;5100623;28;20472;-71
2022/12/06 11:26:50;;;;;;;4.90;4.43;;;;;;;;;;5095566;28;20462;-69
2022/12/06 11:29:17;;;;;;;4.30;3.90;;;;;;;;;;5095245;28;20456;-68
2022/12/06 11:31:45;;;;;;;5.73;4.83;;;;;;;;;;5097953;28;20458;-68
2022/12/06 11:34:15;;;;;;;6.40;5.70;;;;;;;;;;5103497;28;20483;-68
2022/12/06 11:36:42;;;;;;;6.05;5.53;;;;;;;;;;5099509;28;20196;-73
2022/12/06 11:39:11;;;;;;;6.77;6.07;;;;;;;;;;5097702;28;20279;-72
2022/12/06 11:41:38;;;;;;;7.30;6.30;;;;;;;;;;5102166;28;20804;-70
2022/12/06 11:44:06;;;;;;;7.73;5.60;;;;;;;;;;5113088;28;20560;-64
2022/12/06 11:46:33;;;;;;;5.32;4.82;;;;;;;;;;5103150;28;20480;-69
2022/12/06 11:49:04;;;;;;;4.93;4.63;;;;;;;;;;5111777;27;20274;-65
2022/12/06 11:51:31;;;;;;;5.50;5.10;;;;;;;;;;5093106;28;20970;-67
2022/12/06 11:54:01;;;;;;;4.70;4.30;;;;;;;;;;5104370;28;20511;-66
2022/12/06 11:56:30;;;;;;;5.23;4.80;;;;;;;;;;5098018;28;20533;-64
2022/12/06 11:59:01;;;;;;;4.70;4.30;;;;;;;;;;5094766;28;20448;-73
2022/12/06 12:01:37;;;;;;;4.17;3.87;;;;;;;;;;5095114;28;20197;-64
2022/12/06 12:04:23;;;;;;;4.10;3.80;;;;;;;;;;5096397;28;20459;-77
2022/12/06 12:06:51;;;;;;;10.52;6.28;;;;;;;;;;5104198;28;20460;-71
2022/12/06 12:09:20;;;;;;;7.93;7.17;;;;;;;;;;5094887;28;20586;-71
2022/12/06 12:11:55;;;;;;;5.83;4.80;;;;;;;;;;5094377;28;20461;-69
2022/12/06 12:14:25;;;;;;;5.47;4.97;;;;;;;;;;5096255;28;20820;-60
2022/12/06 12:16:56;;;;;;;4.90;4.50;;;;;;;;;;5095418;28;20537;-61
2022/12/06 12:19:30;;;;;;;4.80;4.40;;;;;;;;;;5102736;28;20535;-62
2022/12/06 12:21:58;;;;;;;6.15;5.47;;;;;;;;;;5102699;28;20280;-65
2022/12/06 12:24:44;;;;;;;5.27;4.83;;;;;;;;;;5108794;28;20215;-64
2022/12/06 12:27:33;;;;;;;6.07;5.47;;;;;;;;;;5093609;28;20453;-64
2022/12/06 12:30:16;;;;;;;5.50;5.10;;;;;;;;;;5094161;28;21037;-65
2022/12/06 12:32:43;;;;;;;6.57;4.37;;;;;;;;;;5094002;28;20644;-65
2022/12/06 12:35:25;;;;;;;4.73;4.00;;;;;;;;;;5097694;28;20808;-76
2022/12/06 12:37:54;;;;;;;5.43;4.90;;;;;;;;;;5094458;28;20452;-75
2022/12/06 12:40:22;;;;;;;5.22;4.72;;;;;;;;;;5098934;28;20453;-65
2022/12/06 12:42:56;;;;;;;5.80;5.30;;;;;;;;;;5093938;28;20188;-66
2022/12/06 12:45:25;;;;;;;6.53;5.45;;;;;;;;;;5092363;28;20215;-62
2022/12/06 12:47:59;;;;;;;5.03;4.53;;;;;;;;;;5099017;28;20220;-65
2022/12/06 12:50:26;;;;;;;5.87;4.90;;;;;;;;;;5101329;28;21005;-65
2022/12/06 12:52:53;;;;;;;5.50;5.00;;;;;;;;;;5114497;28;20509;-63
2022/12/06 12:55:21;;;;;;;5.63;4.82;;;;;;;;;;5106192;28;20464;-65
2022/12/06 12:57:50;;;;;;;5.13;4.63;;;;;;;;;;5094602;28;20197;-66
2022/12/06 13:00:19;;;;;;;5.30;4.90;;;;;;;;;;5095014;28;20604;-65
2022/12/06 13:02:48;;;;;;;5.05;4.57;;;;;;;;;;5114574;28;20199;-64
2022/12/06 13:05:17;;;;;;;5.20;4.70;;;;;;;;;;5114110;28;20584;-64
2022/12/06 13:07:44;;;;;;;5.45;4.95;;;;;;;;;;5113752;28;20195;-64
2022/12/06 13:10:17;;;;;;;6.05;5.50;;;;;;;;;;5111879;28;20198;-64
2022/12/06 13:12:46;;;;;;;5.50;5.03;;;;;;;;;;5102106;28;20543;-64
2022/12/06 13:15:16;;;;;;;5.30;4.80;;;;;;;;;;5109126;28;20574;-63
2022/12/06 13:17:46;;;;;;;6.53;5.93;;;;;;;;;;5113907;28;20458;-63
2022/12/06 13:20:20;;;;;;;5.23;4.77;;;;;;;;;;5113670;28;20601;-63
2022/12/06 13:22:49;;;;;;;5.30;4.53;;;;;;;;;;5113570;28;20859;-62
2022/12/06 13:25:16;;;;;;;5.72;4.68;;;;;;;;;;5112656;28;20229;-62
2022/12/06 13:27:45;;;;;;;5.15;4.65;;;;;;;;;;5113288;28;20608;-63
2022/12/06 13:30:15;;;;;;;8.50;4.97;;;;;;;;;;5112981;28;20196;-63
2022/12/06 13:32:43;;;;;;;5.15;4.72;;;;;;;;;;5109263;28;20538;-62
2022/12/06 13:35:19;;;;;;;4.80;4.40;;;;;;;;;;5101753;28;20199;-63
2022/12/06 13:37:51;;;;;;;5.20;4.40;;;;;;;;;;5113631;28;20293;-63
2022/12/06 13:40:39;;;;;;;4.70;4.30;;;;;;;;;;5099910;28;20442;-63
2022/12/06 13:43:07;;;;;;;4.80;4.38;;;;;;;;;;5093104;28;20292;-62
2022/12/06 13:45:39;;;;;;;4.60;4.20;;;;;;;;;;5092623;28;20219;-63
2022/12/06 13:48:21;;;;;;;4.20;3.90;;;;;;;;;;5092767;28;20196;-62
2022/12/06 13:50:51;;;;;;;4.70;4.30;;;;;;;;;;5092237;28;20197;-63
2022/12/06 13:53:18;;;;;;;5.40;4.73;;;;;;;;;;5092973;28;20452;-67
2022/12/06 13:55:50;;;;;;;5.67;5.17;;;;;;;;;;5092824;28;20469;-66
2022/12/06 13:58:35;;;;;;;5.38;4.97;;;;;;;;;;5092104;28;20526;-64
2022/12/06 14:01:02;;;;;;;5.20;4.70;;;;;;;;;;5092688;28;20282;-66
2022/12/06 14:03:39;;;;;;;5.70;4.05;;;;;;;;;;5092984;28;20539;-67
2022/12/06 14:06:08;;;;;;;6.35;5.70;;;;;;;;;;5092536;28;20259;-72
2022/12/06 14:08:37;;;;;;;4.15;3.85;;;;;;;;;;5092714;28;20253;-68
2022/12/06 14:11:22;;;;;;;4.40;4.10;;;;;;;;;;5099845;28;20270;-67
2022/12/06 14:13:50;;;;;;;4.83;4.43;;;;;;;;;;5112837;28;20230;-68
2022/12/06 14:16:22;;;;;;;5.20;4.80;;;;;;;;;;5112818;28;20539;-67
2022/12/06 14:18:50;;;;;;;5.10;4.70;;;;;;;;;;5111527;28;20811;-66
2022/12/06 14:21:23;;;;;;;6.07;5.47;;;;;;;;;;5112584;28;20449;-66
2022/12/06 14:23:50;;;;;;;6.50;6.00;;;;;;;;;;5112983;28;20456;-66
2022/12/06 14:26:22;;;;;;;8.43;7.70;;;;;;;;;;5111222;28;20485;-66
2022/12/06 14:28:50;;;;;;;7.70;7.00;;;;;;;;;;5112933;28;20488;-66
2022/12/06 14:31:18;;;;;;;6.95;6.28;;;;;;;;;;5112506;28;20449;-66
2022/12/06 14:33:45;;;;;;;8.90;8.00;;;;;;;;;;5112605;28;20194;-66
2022/12/06 14:36:16;;;;;;;13.00;9.80;;;;;;;;;;5113030;28;20456;-66
2022/12/06 14:38:50;;;;;;;8.10;7.30;;;;;;;;;;5116876;28;20532;-66
2022/12/06 14:44:11;;;;;;;8.23;7.43;;;;;;;;;;5116764;28;20951;-66
2022/12/06 14:46:38;;;;;;;6.40;5.90;;;;;;;;;;5115846;28;20586;-66
2022/12/06 14:51:52;;;;;;;7.00;6.17;;;;;;;;;;5116721;28;20970;-66
2022/12/06 14:54:31;;;;;;;6.07;5.27;;;;;;;;;;5116553;28;20448;-66
2022/12/06 14:56:58;;;;;;;8.63;6.05;;;;;;;;;;5116820;28;20501;-66
2022/12/06 14:59:26;;;;;;;6.70;6.10;;;;;;;;;;5116780;28;20245;-66
2022/12/06 15:01:55;;;;;;;6.93;6.33;;;;;;;;;;5116600;28;20452;-66
2022/12/06 15:04:25;;;;;;;7.70;7.00;;;;;;;;;;5116696;28;20452;-66
2022/12/06 15:06:53;;;;;;;7.77;6.67;;;;;;;;;;5116360;28;20282;-66
2022/12/06 15:09:21;;;;;;;8.20;6.60;;;;;;;;;;5116406;28;20448;-66
2022/12/06 15:14:46;;;;;;;6.18;5.68;;;;;;;;;;5116732;28;20494;-66
2022/12/06 15:17:16;;;;;;;6.43;5.80;;;;;;;;;;5116293;28;20223;-66
2022/12/06 15:19:45;;;;;;;7.17;6.60;;;;;;;;;;5116182;28;20551;-66